Time;durP1;ratioP1;P1;durP2;ratioP2;P2;SDS_P1;SDS_P2;PMS_P1;PMS_P2;Temp;Humidity;BMP_temperature;BMP_pressure;BME280_temperature;BME280_humidity;BME280_pressure;Samples;Min_cycle;Max_cycle;Signal;HPM_P1;HPM_P2
2022/09/15 00:01:03;;;;;;;27.90;14.25;;;;;;;15.23;100.00;100239.94;5048084;28;20060;-72
2022/09/15 00:03:30;;;;;;;29.25;14.40;;;;;;;15.24;100.00;100235.16;5047126;28;20063;-73
2022/09/15 00:05:56;;;;;;;31.33;15.65;;;;;;;15.29;100.00;100240.22;5048919;28;20048;-73
2022/09/15 00:08:23;;;;;;;30.23;14.20;;;;;;;15.33;100.00;100236.09;5048455;28;20053;-74
2022/09/15 00:10:57;;;;;;;31.20;14.15;;;;;;;15.29;100.00;100240.97;5048648;28;20064;-73
2022/09/15 00:13:24;;;;;;;26.08;13.38;;;;;;;15.20;100.00;100242.84;5046423;28;20079;-74
2022/09/15 00:15:52;;;;;;;28.25;12.57;;;;;;;15.20;100.00;100238.06;5046972;28;20527;-74
2022/09/15 00:18:19;;;;;;;28.80;14.05;;;;;;;15.17;100.00;100244.50;5048827;28;20060;-72
2022/09/15 00:20:45;;;;;;;30.42;14.52;;;;;;;15.13;100.00;100243.03;5048406;28;20765;-74
2022/09/15 00:23:14;;;;;;;27.63;12.52;;;;;;;15.06;100.00;100241.22;5048799;28;20658;-73
2022/09/15 00:25:46;;;;;;;26.42;14.40;;;;;;;15.04;100.00;100242.88;5048333;28;20048;-73
2022/09/15 00:28:14;;;;;;;33.85;15.60;;;;;;;15.04;100.00;100245.66;5046428;28;20048;-73
2022/09/15 00:30:43;;;;;;;33.45;14.35;;;;;;;15.09;100.00;100243.13;5046500;28;20287;-74
2022/09/15 00:33:11;;;;;;;36.25;16.48;;;;;;;15.11;100.00;100246.25;5049139;28;20044;-73
2022/09/15 00:35:39;;;;;;;29.65;15.15;;;;;;;15.07;100.00;100240.00;5048760;28;20045;-73
2022/09/15 00:38:08;;;;;;;33.47;16.13;;;;;;;15.07;100.00;100237.22;5048835;28;20045;-73
2022/09/15 00:40:43;;;;;;;31.30;16.10;;;;;;;15.02;100.00;100234.97;5047534;28;20467;-73
2022/09/15 00:43:10;;;;;;;32.58;15.23;;;;;;;14.97;100.00;100235.50;5046506;28;20056;-73
2022/09/15 00:45:37;;;;;;;35.53;17.17;;;;;;;14.95;100.00;100229.56;5047043;28;20047;-73
2022/09/15 00:48:05;;;;;;;37.40;17.95;;;;;;;14.96;100.00;100245.06;5048045;28;20091;-73
2022/09/15 00:50:33;;;;;;;37.72;17.52;;;;;;;14.94;100.00;100236.38;5047960;28;20053;-73
2022/09/15 00:53:04;;;;;;;32.45;16.42;;;;;;;14.96;100.00;100231.13;5046124;28;20066;-74
2022/09/15 00:55:40;;;;;;;34.63;15.82;;;;;;;14.88;100.00;100226.97;5044680;28;20044;-73
2022/09/15 00:58:25;;;;;;;37.90;17.23;;;;;;;14.83;100.00;100219.16;5048750;28;20060;-73
2022/09/15 01:00:55;;;;;;;38.17;17.65;;;;;;;14.88;100.00;100220.63;5061154;28;20093;-72
2022/09/15 01:03:24;;;;;;;31.75;15.05;;;;;;;14.74;100.00;100230.13;5066679;28;20049;-73
2022/09/15 01:05:56;;;;;;;33.70;15.32;;;;;;;14.60;100.00;100227.72;5066887;28;20048;-72
2022/09/15 01:08:25;;;;;;;33.90;15.38;;;;;;;14.60;100.00;100224.94;5067194;28;20553;-73
2022/09/15 01:10:52;;;;;;;35.15;16.98;;;;;;;14.61;100.00;100226.50;5066618;28;20071;-73
2022/09/15 01:13:18;;;;;;;35.17;18.48;;;;;;;14.64;100.00;100228.41;5066998;28;20044;-73
2022/09/15 01:16:23;;;;;;;36.20;16.08;;;;;;;14.68;100.00;100231.88;5066120;28;20488;-74
2022/09/15 01:19:22;;;;;;;31.80;15.77;;;;;;;14.67;100.00;100224.75;5059360;28;20413;-73
2022/09/15 01:22:10;;;;;;;35.20;16.17;;;;;;;14.60;100.00;100224.94;5066262;28;20408;-73
2022/09/15 01:24:59;;;;;;;31.73;15.05;;;;;;;14.54;100.00;100226.66;5067771;28;20048;-72
2022/09/15 01:27:45;;;;;;;32.80;13.80;;;;;;;14.44;100.00;100224.13;5065029;28;20048;-72
2022/09/15 01:30:21;;;;;;;28.08;14.00;;;;;;;14.31;100.00;100226.84;5067807;28;20334;-72
2022/09/15 01:33:02;;;;;;;30.50;14.95;;;;;;;14.24;100.00;100221.44;5071817;28;20055;-73
2022/09/15 01:35:36;;;;;;;29.25;14.20;;;;;;;14.24;100.00;100217.91;5062181;28;20037;-73
2022/09/15 01:38:29;;;;;;;28.15;14.50;;;;;;;14.20;100.00;100225.50;5067705;28;20049;-71
2022/09/15 01:41:25;;;;;;;33.53;14.57;;;;;;;14.16;100.00;100224.78;5067169;28;20048;-70
2022/09/15 01:43:55;;;;;;;37.00;16.05;;;;;;;14.14;100.00;100225.22;5055036;28;20056;-72
2022/09/15 01:46:26;;;;;;;31.05;15.70;;;;;;;14.14;100.00;100224.47;5060652;28;20102;-72
2022/09/15 01:48:54;;;;;;;38.03;17.17;;;;;;;14.15;100.00;100223.22;5066765;28;20056;-73
2022/09/15 01:51:24;;;;;;;36.85;16.58;;;;;;;14.16;100.00;100235.91;5066062;28;20052;-73
2022/09/15 01:53:53;;;;;;;31.88;15.95;;;;;;;14.07;100.00;100232.97;5062155;28;20049;-72
2022/09/15 01:56:19;;;;;;;29.50;14.45;;;;;;;14.00;100.00;100231.13;5067018;28;20044;-71
2022/09/15 01:58:50;;;;;;;31.70;15.35;;;;;;;14.02;100.00;100237.03;5067667;28;20101;-71
2022/09/15 02:01:28;;;;;;;37.03;15.82;;;;;;;14.05;100.00;100227.03;5066335;28;20048;-72
2022/09/15 02:04:06;;;;;;;26.38;14.00;;;;;;;13.99;100.00;100232.34;5067634;28;20045;-72
2022/09/15 02:06:36;;;;;;;36.85;15.98;;;;;;;14.01;100.00;100246.59;5067250;28;20037;-72
2022/09/15 02:09:09;;;;;;;34.90;16.42;;;;;;;14.05;100.00;100244.53;5067393;28;20041;-72
2022/09/15 02:11:47;;;;;;;33.50;15.48;;;;;;;14.02;100.00;100242.59;5066110;28;21595;-72
2022/09/15 02:14:32;;;;;;;33.53;16.30;;;;;;;14.08;100.00;100243.66;5066043;28;20048;-72
2022/09/15 02:17:00;;;;;;;33.47;15.02;;;;;;;14.12;100.00;100238.00;5067611;28;20044;-72
2022/09/15 02:19:40;;;;;;;30.10;14.30;;;;;;;14.10;100.00;100238.44;5067401;28;20082;-72
2022/09/15 02:22:22;;;;;;;30.70;14.15;;;;;;;14.02;100.00;100231.47;5060709;28;20072;-72
2022/09/15 02:25:03;;;;;;;33.45;16.80;;;;;;;14.05;100.00;100230.63;5057128;28;20056;-72
2022/09/15 02:27:36;;;;;;;33.20;15.30;;;;;;;14.06;100.00;100225.81;5064969;28;20044;-72
2022/09/15 02:30:10;;;;;;;31.15;16.27;;;;;;;14.07;100.00;100230.19;5067606;28;20044;-72
2022/09/15 02:33:00;;;;;;;33.92;15.73;;;;;;;14.15;100.00;100226.03;5064706;28;20074;-72
2022/09/15 02:35:29;;;;;;;34.78;17.42;;;;;;;14.21;100.00;100225.06;5070081;28;20044;-72
2022/09/15 02:37:57;;;;;;;32.42;15.57;;;;;;;14.26;100.00;100232.94;5063806;28;20047;-72
2022/09/15 02:40:23;;;;;;;36.95;16.42;;;;;;;14.32;100.00;100228.41;5070832;28;20040;-72
2022/09/15 02:42:53;;;;;;;36.15;15.95;;;;;;;14.37;100.00;100236.25;5069324;28;20048;-72
2022/09/15 02:45:20;;;;;;;37.55;16.25;;;;;;;14.42;100.00;100244.09;5069576;28;20040;-72
2022/09/15 02:47:46;;;;;;;32.17;14.25;;;;;;;14.38;100.00;100254.50;5068496;28;20088;-72
2022/09/15 02:50:13;;;;;;;28.85;14.15;;;;;;;14.25;100.00;100253.63;5070563;28;20040;-72
2022/09/15 02:52:39;;;;;;;32.97;15.20;;;;;;;14.21;100.00;100247.31;5069410;28;20388;-72
2022/09/15 02:55:06;;;;;;;28.73;13.85;;;;;;;14.16;100.00;100242.28;5070061;28;20166;-72
2022/09/15 02:57:32;;;;;;;34.38;16.45;;;;;;;14.15;100.00;100240.72;5070444;28;20613;-72
2022/09/15 03:00:15;;;;;;;34.55;17.00;;;;;;;14.20;100.00;100248.53;5070271;28;20431;-72
2022/09/15 03:02:49;;;;;;;38.42;15.82;;;;;;;14.26;100.00;100246.06;5069632;28;20052;-72
2022/09/15 03:05:17;;;;;;;33.70;15.73;;;;;;;14.25;100.00;100248.06;5066115;28;20465;-72
2022/09/15 03:07:44;;;;;;;35.85;16.85;;;;;;;14.28;100.00;100244.41;5073102;28;20417;-72
2022/09/15 03:10:11;;;;;;;36.58;15.70;;;;;;;14.32;100.00;100247.91;5070168;28;20401;-72
2022/09/15 03:12:39;;;;;;;42.42;17.50;;;;;;;14.36;100.00;100254.16;5064743;28;20230;-72
2022/09/15 03:15:08;;;;;;;33.53;16.00;;;;;;;14.30;100.00;100249.53;5069976;28;20748;-71
2022/09/15 03:17:36;;;;;;;33.63;15.63;;;;;;;14.32;100.00;100255.47;5069358;28;20641;-72
2022/09/15 03:20:04;;;;;;;32.92;15.30;;;;;;;14.24;100.00;100256.84;5066659;28;20059;-71
2022/09/15 03:22:31;;;;;;;31.30;13.90;;;;;;;14.23;100.00;100250.50;5069421;28;20481;-71
2022/09/15 03:25:00;;;;;;;38.90;17.48;;;;;;;14.30;100.00;100246.75;5069316;28;20045;-71
2022/09/15 03:27:26;;;;;;;32.33;16.08;;;;;;;14.39;100.00;100255.28;5070390;28;20055;-72
2022/09/15 03:29:53;;;;;;;40.50;17.60;;;;;;;14.32;100.00;100247.91;5069891;28;20040;-72
2022/09/15 03:32:19;;;;;;;38.72;17.27;;;;;;;14.42;100.00;100252.44;5068384;28;20044;-72
2022/09/15 03:34:46;;;;;;;33.97;15.32;;;;;;;14.40;100.00;100254.06;5069990;28;20052;-72
2022/09/15 03:37:13;;;;;;;36.10;16.05;;;;;;;14.45;100.00;100250.78;5069191;28;20439;-72
2022/09/15 03:39:39;;;;;;;36.65;16.75;;;;;;;14.47;100.00;100251.09;5068569;28;20105;-70
2022/09/15 03:42:05;;;;;;;36.65;17.60;;;;;;;14.48;100.00;100247.13;5068364;28;20447;-72
2022/09/15 03:44:32;;;;;;;35.00;16.17;;;;;;;14.54;100.00;100253.72;5069556;28;20122;-72
2022/09/15 03:46:59;;;;;;;33.10;17.20;;;;;;;14.56;100.00;100252.09;5069182;28;20044;-73
2022/09/15 03:49:25;;;;;;;38.90;17.95;;;;;;;14.55;100.00;100244.94;5066219;28;20051;-72
2022/09/15 03:51:51;;;;;;;32.30;14.98;;;;;;;14.54;100.00;100248.94;5065486;28;20166;-73
2022/09/15 03:54:18;;;;;;;36.35;17.42;;;;;;;14.58;100.00;100246.84;5067746;28;20058;-72
2022/09/15 03:56:48;;;;;;;37.05;18.33;;;;;;;14.61;100.00;100248.75;5063103;28;20037;-72
2022/09/15 03:59:15;;;;;;;40.90;19.55;;;;;;;14.65;100.00;100243.13;5067392;28;20044;-75
2022/09/15 04:01:42;;;;;;;38.13;18.55;;;;;;;14.72;100.00;100245.72;5068302;28;20051;-72
2022/09/15 04:04:09;;;;;;;43.38;20.80;;;;;;;14.78;100.00;100247.53;5059674;28;20405;-74
2022/09/15 04:06:36;;;;;;;48.78;22.45;;;;;;;14.82;100.00;100236.31;5061439;28;20044;-72
2022/09/15 04:09:03;;;;;;;45.30;20.63;;;;;;;14.82;100.00;100239.09;5059911;28;20045;-72
2022/09/15 04:11:31;;;;;;;44.92;19.50;;;;;;;14.84;100.00;100237.44;5057719;28;20056;-74
2022/09/15 04:13:57;;;;;;;36.30;18.38;;;;;;;14.82;100.00;100244.66;5064467;28;20052;-73
2022/09/15 04:16:26;;;;;;;37.45;17.77;;;;;;;14.80;100.00;100247.88;5060154;28;20443;-72
2022/09/15 04:18:54;;;;;;;38.90;19.08;;;;;;;14.81;100.00;100245.88;5061305;28;20053;-73
2022/09/15 04:21:23;;;;;;;41.63;18.92;;;;;;;14.87;100.00;100242.13;5057141;28;20056;-74
2022/09/15 04:23:49;;;;;;;42.63;19.02;;;;;;;14.88;100.00;100240.91;5067918;28;20060;-71
2022/09/15 04:26:19;;;;;;;39.13;18.80;;;;;;;14.90;100.00;100246.84;5050699;28;20149;-71
2022/09/15 04:28:45;;;;;;;46.38;19.38;;;;;;;14.92;100.00;100240.81;5066549;28;20056;-73
2022/09/15 04:31:14;;;;;;;42.65;19.15;;;;;;;14.95;100.00;100249.06;5058795;28;20048;-71
2022/09/15 04:33:42;;;;;;;42.28;18.85;;;;;;;14.95;100.00;100243.50;5056375;28;20497;-74
2022/09/15 04:36:11;;;;;;;44.00;20.10;;;;;;;14.98;100.00;100251.00;5063988;28;20135;-73
2022/09/15 04:38:38;;;;;;;44.10;20.00;;;;;;;15.02;100.00;100253.69;5064498;28;20532;-73
2022/09/15 04:41:05;;;;;;;43.00;19.15;;;;;;;15.04;100.00;100254.03;5055204;28;20045;-70
2022/09/15 04:43:32;;;;;;;44.10;18.98;;;;;;;14.99;100.00;100249.75;5067631;28;20185;-71
2022/09/15 04:45:59;;;;;;;44.20;19.58;;;;;;;15.04;100.00;100257.59;5055026;28;20060;-74
2022/09/15 04:48:26;;;;;;;45.97;22.02;;;;;;;15.08;100.00;100263.06;5063556;28;20044;-74
2022/09/15 04:50:53;;;;;;;43.75;18.63;;;;;;;15.12;100.00;100263.78;5062028;28;20493;-73
2022/09/15 04:53:20;;;;;;;39.13;18.17;;;;;;;15.10;100.00;100255.84;5056681;28;20056;-74
2022/09/15 04:55:46;;;;;;;40.20;17.67;;;;;;;15.09;100.00;100254.28;5055457;28;20041;-74
2022/09/15 04:58:13;;;;;;;35.85;18.23;;;;;;;15.09;100.00;100262.63;5056439;28;20056;-71
2022/09/15 05:00:44;;;;;;;36.75;17.00;;;;;;;15.04;100.00;100260.38;5061445;28;20064;-68
2022/09/15 05:03:12;;;;;;;45.28;19.35;;;;;;;15.03;100.00;100261.63;5058455;28;20064;-71
2022/09/15 05:05:40;;;;;;;41.42;19.02;;;;;;;15.06;100.00;100259.94;5059783;28;20044;-71
2022/09/15 05:08:07;;;;;;;46.65;21.17;;;;;;;15.10;100.00;100260.63;5060508;28;20057;-71
2022/09/15 05:10:33;;;;;;;42.30;18.38;;;;;;;15.13;100.00;100262.56;5063822;28;20071;-71
2022/09/15 05:13:00;;;;;;;42.83;18.77;;;;;;;15.13;100.00;100266.09;5056796;28;20106;-71
2022/09/15 05:15:26;;;;;;;36.33;18.20;;;;;;;15.18;100.00;100271.16;5065053;28;20105;-72
2022/09/15 05:17:53;;;;;;;39.42;19.05;;;;;;;15.26;100.00;100268.97;5064601;28;20150;-71
2022/09/15 05:20:19;;;;;;;36.38;16.90;;;;;;;15.23;100.00;100276.19;5067781;28;20056;-72
2022/09/15 05:22:46;;;;;;;39.15;19.58;;;;;;;15.23;100.00;100270.59;5055356;28;20060;-71
2022/09/15 05:25:12;;;;;;;44.35;19.45;;;;;;;15.25;100.00;100267.38;5060983;28;20052;-72
2022/09/15 05:27:39;;;;;;;40.75;19.35;;;;;;;15.23;100.00;100265.03;5059577;28;20040;-71
2022/09/15 05:30:06;;;;;;;40.05;20.75;;;;;;;15.26;100.00;100264.16;5062840;28;20464;-71
2022/09/15 05:32:53;;;;;;;42.40;20.42;;;;;;;15.29;100.00;100271.63;5049023;28;20098;-71
2022/09/15 05:35:19;;;;;;;45.80;21.92;;;;;;;15.26;100.00;100268.97;5062462;28;20572;-72
2022/09/15 05:37:46;;;;;;;37.80;19.80;;;;;;;15.30;100.00;100275.22;5051305;28;20064;-72
2022/09/15 05:40:12;;;;;;;44.70;22.42;;;;;;;15.38;100.00;100271.84;5059488;28;20539;-71
2022/09/15 05:42:39;;;;;;;41.85;21.55;;;;;;;15.41;100.00;100282.09;5064154;28;20078;-70
2022/09/15 05:45:06;;;;;;;44.42;21.45;;;;;;;15.43;100.00;100278.88;5059859;28;20052;-73
2022/09/15 05:47:32;;;;;;;42.58;20.73;;;;;;;15.45;100.00;100282.78;5065704;28;20051;-71
2022/09/15 05:49:59;;;;;;;45.78;21.65;;;;;;;15.48;100.00;100281.91;5051827;28;20059;-72
2022/09/15 05:52:25;;;;;;;41.42;20.58;;;;;;;15.52;100.00;100281.78;5064559;28;20044;-71
2022/09/15 05:54:52;;;;;;;44.72;21.42;;;;;;;15.52;100.00;100282.59;5065651;28;20562;-72
2022/09/15 05:57:24;;;;;;;45.28;20.52;;;;;;;15.57;100.00;100286.06;5065473;28;20565;-72
2022/09/15 05:59:50;;;;;;;42.13;20.90;;;;;;;15.61;100.00;100289.50;5067963;28;20056;-72
2022/09/15 06:02:17;;;;;;;41.08;20.85;;;;;;;15.64;100.00;100289.44;5066160;28;20064;-71
2022/09/15 06:04:43;;;;;;;49.00;22.02;;;;;;;15.68;100.00;100292.09;5067754;28;20700;-71
2022/09/15 06:07:10;;;;;;;43.47;21.20;;;;;;;15.70;100.00;100292.44;5067756;28;20049;-73
2022/09/15 06:09:37;;;;;;;46.67;22.92;;;;;;;15.72;100.00;100288.00;5070534;28;20059;-71
2022/09/15 06:12:03;;;;;;;38.15;20.00;;;;;;;15.75;100.00;100298.25;5071203;28;20048;-71
2022/09/15 06:14:30;;;;;;;44.42;21.17;;;;;;;15.77;100.00;100295.03;5071913;28;20044;-71
2022/09/15 06:16:56;;;;;;;41.35;19.42;;;;;;;15.76;100.00;100299.81;5070821;28;20048;-70
2022/09/15 06:19:23;;;;;;;39.80;19.23;;;;;;;15.79;100.00;100317.69;5070900;28;20048;-70
2022/09/15 06:21:49;;;;;;;38.20;19.63;;;;;;;15.80;100.00;100313.69;5067553;28;20063;-73
2022/09/15 06:24:16;;;;;;;39.97;18.95;;;;;;;15.84;100.00;100314.34;5066323;28;20057;-68
2022/09/15 06:26:42;;;;;;;34.00;18.55;;;;;;;15.81;100.00;100316.03;5063418;28;20044;-73
2022/09/15 06:29:12;;;;;;;38.47;19.50;;;;;;;15.82;100.00;100317.59;5063974;28;20056;-73
2022/09/15 06:31:39;;;;;;;37.30;18.73;;;;;;;15.85;100.00;100319.50;5066561;28;20424;-70
2022/09/15 06:34:07;;;;;;;40.55;19.20;;;;;;;15.88;100.00;100320.59;5063855;28;20045;-71
2022/09/15 06:36:36;;;;;;;36.22;18.08;;;;;;;15.86;100.00;100321.06;5067388;28;20071;-65
2022/09/15 06:39:03;;;;;;;36.83;18.77;;;;;;;15.91;100.00;100322.50;5064234;28;20055;-65
2022/09/15 06:41:30;;;;;;;40.03;17.83;;;;;;;15.91;100.00;100326.09;5060601;28;20499;-70
2022/09/15 06:44:17;;;;;;;43.65;18.98;;;;;;;15.99;100.00;100330.25;5065494;28;20055;-70
2022/09/15 06:46:44;;;;;;;34.08;17.65;;;;;;;16.00;100.00;100329.00;5066030;28;20094;-69
2022/09/15 06:49:10;;;;;;;34.38;16.70;;;;;;;16.01;100.00;100327.00;5057863;28;20122;-68
2022/09/15 06:51:37;;;;;;;36.17;17.98;;;;;;;16.02;100.00;100334.16;5066143;28;20051;-68
2022/09/15 06:54:04;;;;;;;40.80;18.77;;;;;;;16.01;100.00;100338.97;5066297;28;20049;-67
2022/09/15 06:56:31;;;;;;;42.50;18.05;;;;;;;16.08;100.00;100346.34;5058203;28;20067;-68
2022/09/15 06:59:03;;;;;;;45.15;19.20;;;;;;;16.13;100.00;100346.56;5064203;28;20407;-68
2022/09/15 07:01:31;;;;;;;40.85;17.83;;;;;;;16.18;100.00;100345.25;5077994;28;20052;-71
2022/09/15 07:03:59;;;;;;;31.90;16.83;;;;;;;16.20;100.00;100342.81;5080872;28;20052;-69
2022/09/15 07:06:27;;;;;;;34.65;16.38;;;;;;;16.23;100.00;100348.25;5078284;28;20075;-69
2022/09/15 07:08:53;;;;;;;31.13;16.20;;;;;;;16.26;100.00;100357.78;5077526;28;20056;-67
2022/09/15 07:11:20;;;;;;;32.65;14.95;;;;;;;16.32;100.00;100350.38;5059754;28;20100;-69
2022/09/15 07:13:50;;;;;;;34.53;16.95;;;;;;;16.33;100.00;100352.75;5068935;28;20052;-69
2022/09/15 07:16:18;;;;;;;27.90;15.07;;;;;;;16.41;100.00;100353.31;5069873;28;20053;-69
2022/09/15 07:18:45;;;;;;;30.38;15.35;;;;;;;16.45;100.00;100356.81;5060134;28;20063;-69
2022/09/15 07:21:15;;;;;;;29.40;14.35;;;;;;;16.49;100.00;100355.47;5061429;28;20436;-69
2022/09/15 07:23:42;;;;;;;32.28;14.93;;;;;;;16.49;100.00;100360.28;5060337;28;20052;-71
2022/09/15 07:26:13;;;;;;;31.40;14.60;;;;;;;16.56;100.00;100360.03;5068718;28;20052;-70
2022/09/15 07:28:42;;;;;;;26.95;13.48;;;;;;;16.49;100.00;100354.69;5070763;28;20052;-68
2022/09/15 07:31:12;;;;;;;25.58;12.85;;;;;;;16.58;100.00;100361.19;5063543;28;20110;-68
2022/09/15 07:33:38;;;;;;;28.58;12.10;;;;;;;16.64;100.00;100356.59;5054411;28;20072;-69
2022/09/15 07:36:06;;;;;;;27.98;12.73;;;;;;;16.68;100.00;100362.88;5054579;28;20056;-68
2022/09/15 07:38:34;;;;;;;28.55;12.80;;;;;;;16.76;100.00;100358.59;5062922;28;20060;-67
2022/09/15 07:41:05;;;;;;;27.17;12.18;;;;;;;16.69;100.00;100358.03;5066133;28;20060;-70
2022/09/15 07:43:32;;;;;;;25.50;11.23;;;;;;;16.78;100.00;100363.75;5064439;28;20429;-69
2022/09/15 07:46:00;;;;;;;24.08;11.40;;;;;;;16.86;100.00;100356.69;5069961;28;20059;-67
2022/09/15 07:48:27;;;;;;;26.10;13.50;;;;;;;16.95;100.00;100354.81;5054216;28;20053;-69
2022/09/15 07:50:53;;;;;;;21.75;10.95;;;;;;;17.02;100.00;100362.16;5073509;28;20139;-69
2022/09/15 07:53:20;;;;;;;21.63;11.05;;;;;;;17.11;100.00;100373.44;5067826;28;20044;-70
2022/09/15 07:55:52;;;;;;;25.48;11.13;;;;;;;17.13;100.00;100376.56;5058590;28;20055;-70
2022/09/15 07:58:19;;;;;;;23.40;10.98;;;;;;;17.14;100.00;100375.31;5060685;28;20049;-71
2022/09/15 08:00:46;;;;;;;25.67;11.27;;;;;;;17.28;100.00;100378.44;5033101;28;20063;-69
2022/09/15 08:03:13;;;;;;;22.90;10.50;;;;;;;17.28;100.00;100388.84;5037590;28;20044;-71
2022/09/15 08:05:40;;;;;;;22.55;8.85;;;;;;;17.25;100.00;100379.31;5038276;28;20059;-69
2022/09/15 08:08:11;;;;;;;20.23;6.90;;;;;;;17.35;100.00;100371.84;5043177;28;20040;-70
2022/09/15 08:10:41;;;;;;;21.00;7.22;;;;;;;17.35;100.00;100383.03;5037439;28;20055;-70
2022/09/15 08:13:08;;;;;;;21.15;6.97;;;;;;;17.39;100.00;100384.44;5031950;28;20580;-70
2022/09/15 08:15:37;;;;;;;17.65;6.63;;;;;;;17.45;100.00;100387.50;5036943;28;20063;-69
2022/09/15 08:18:04;;;;;;;19.25;6.80;;;;;;;17.61;100.00;100390.91;5037158;28;20052;-69
2022/09/15 08:20:32;;;;;;;17.38;5.68;;;;;;;17.69;100.00;100394.25;5036337;28;20044;-72
2022/09/15 08:22:58;;;;;;;14.63;5.60;;;;;;;17.76;100.00;100394.00;5039400;28;20163;-69
2022/09/15 08:25:25;;;;;;;14.77;5.35;;;;;;;17.80;100.00;100401.03;5043481;28;20044;-69
2022/09/15 08:27:53;;;;;;;16.08;5.00;;;;;;;17.69;100.00;100402.63;5041424;28;20740;-72
2022/09/15 08:30:20;;;;;;;18.55;4.95;;;;;;;17.71;100.00;100412.13;5045458;28;20060;-69
2022/09/15 08:32:47;;;;;;;14.40;5.20;;;;;;;17.76;100.00;100408.75;5043763;28;20055;-71
2022/09/15 08:35:15;;;;;;;16.17;4.88;;;;;;;17.93;100.00;100420.56;5039125;28;20576;-71
2022/09/15 08:37:42;;;;;;;14.15;4.70;;;;;;;17.96;100.00;100419.66;5039984;28;20047;-71
2022/09/15 08:40:22;;;;;;;12.45;4.10;;;;;;;18.06;100.00;100426.91;5039859;28;20103;-70
2022/09/15 08:42:54;;;;;;;16.38;3.17;;;;;;;18.09;100.00;100428.75;5034849;28;20083;-69
2022/09/15 08:45:28;;;;;;;9.25;2.78;;;;;;;18.20;100.00;100419.97;5040721;28;20049;-69
2022/09/15 08:48:02;;;;;;;7.78;2.92;;;;;;;18.32;100.00;100421.94;5041298;28;20773;-68
2022/09/15 08:50:43;;;;;;;11.13;2.35;;;;;;;18.39;100.00;100425.28;5042631;28;20054;-69
2022/09/15 08:53:18;;;;;;;5.32;1.80;;;;;;;18.39;100.00;100433.69;5041400;28;20067;-69
2022/09/15 08:55:57;;;;;;;14.35;2.22;;;;;;;18.42;100.00;100437.59;5040652;28;20060;-68
2022/09/15 08:58:27;;;;;;;5.85;1.38;;;;;;;18.48;100.00;100441.34;5042508;28;20050;-72
2022/09/15 09:01:01;;;;;;;8.85;1.83;;;;;;;18.64;100.00;100439.16;5041107;28;20067;-68
2022/09/15 09:03:28;;;;;;;7.30;1.80;;;;;;;18.86;100.00;100451.06;5039701;28;20061;-68
2022/09/15 09:05:57;;;;;;;7.32;1.92;;;;;;;19.08;100.00;100446.22;5054660;28;20053;-70
2022/09/15 09:08:30;;;;;;;14.50;2.10;;;;;;;19.18;100.00;100453.41;5037426;28;20048;-72
2022/09/15 09:11:29;;;;;;;12.77;1.85;;;;;;;19.14;100.00;100449.19;5037451;28;20857;-68
2022/09/15 09:13:55;;;;;;;13.65;2.63;;;;;;;19.30;100.00;100451.78;5031200;28;20483;-72
2022/09/15 09:16:40;;;;;;;11.35;1.92;;;;;;;19.32;100.00;100444.44;5038819;28;20044;-72
2022/09/15 09:19:51;;;;;;;9.93;2.10;;;;;;;19.29;100.00;100444.56;5038614;28;20055;-71
2022/09/15 09:22:25;;;;;;;12.35;2.38;;;;;;;19.39;100.00;100449.75;4971811;28;20049;-67
2022/09/15 09:24:55;;;;;;;13.18;2.10;;;;;;;19.56;100.00;100453.06;5028291;28;20118;-71
2022/09/15 09:27:33;;;;;;;10.35;1.73;;;;;;;19.62;100.00;100443.59;5038778;28;20090;-69
2022/09/15 09:30:03;;;;;;;15.00;2.53;;;;;;;19.76;100.00;100451.41;5042746;28;20775;-71
2022/09/15 09:32:39;;;;;;;7.03;1.25;;;;;;;19.15;96.51;100459.94;5043596;28;20045;-71
2022/09/15 09:35:27;;;;;;;11.55;1.90;;;;;;;19.22;100.00;100453.25;5040928;28;20730;-71
2022/09/15 09:37:54;;;;;;;9.88;2.25;;;;;;;19.34;100.00;100446.78;5046554;28;20830;-69
2022/09/15 09:40:21;;;;;;;16.80;2.88;;;;;;;19.52;100.00;100444.81;5046942;28;20059;-68
2022/09/15 09:42:48;;;;;;;12.18;1.83;;;;;;;19.64;100.00;100441.06;5049070;28;20097;-70
2022/09/15 09:45:17;;;;;;;11.52;2.10;;;;;;;19.56;100.00;100444.66;5051862;28;20075;-69
2022/09/15 09:47:45;;;;;;;12.80;2.10;;;;;;;19.49;97.41;100444.94;5050326;28;20048;-71
2022/09/15 09:50:32;;;;;;;11.43;1.75;;;;;;;19.64;100.00;100443.88;5050517;28;20062;-67
2022/09/15 09:52:59;;;;;;;8.48;2.00;;;;;;;19.51;96.88;100454.44;5047149;28;20056;-70
2022/09/15 09:55:27;;;;;;;10.63;3.95;;;;;;;19.51;99.56;100453.69;5038854;28;20048;-69
2022/09/15 09:58:10;;;;;;;10.32;2.00;;;;;;;19.62;100.00;100451.22;5043889;28;20045;-69
2022/09/15 10:00:39;;;;;;;7.53;1.80;;;;;;;19.55;96.76;100452.31;5046741;28;20074;-69
2022/09/15 10:03:24;;;;;;;6.68;1.45;;;;;;;19.34;92.86;100452.41;5036697;28;20064;-67
2022/09/15 10:06:09;;;;;;;10.18;1.80;;;;;;;19.37;96.04;100448.66;5048794;28;20853;-70
2022/09/15 10:08:37;;;;;;;10.70;1.88;;;;;;;19.33;97.60;100460.03;5057333;28;20057;-69
2022/09/15 10:11:07;;;;;;;7.57;1.80;;;;;;;19.20;100.00;100424.91;5049311;28;20060;-66
2022/09/15 10:13:35;;;;;;;11.27;1.70;;;;;;;19.22;100.00;100453.25;5048482;28;20868;-66
2022/09/15 10:16:05;;;;;;;9.15;1.92;;;;;;;19.21;100.00;100449.69;5048077;28;20064;-68
2022/09/15 10:18:37;;;;;;;8.85;2.15;;;;;;;19.19;100.00;100452.16;5049223;28;20051;-70
2022/09/15 10:21:07;;;;;;;13.15;2.03;;;;;;;19.13;100.00;100458.84;5048821;28;20052;-67
2022/09/15 10:23:34;;;;;;;15.52;3.25;;;;;;;19.05;100.00;100463.94;5050479;28;20572;-69
2022/09/15 10:26:33;;;;;;;8.77;1.90;;;;;;;18.82;100.00;100464.44;5050571;28;20067;-68
2022/09/15 10:29:12;;;;;;;5.53;1.63;;;;;;;18.57;100.00;100472.25;5046726;28;20129;-68
2022/09/15 10:31:39;;;;;;;8.10;2.00;;;;;;;18.33;100.00;100474.72;5043228;28;20765;-66
2022/09/15 10:34:27;;;;;;;4.15;1.80;;;;;;;18.11;100.00;100468.28;5050024;28;20322;-68
2022/09/15 10:37:19;;;;;;;9.05;1.98;;;;;;;17.98;100.00;100475.19;5047649;28;20064;-70
2022/09/15 10:39:54;;;;;;;5.47;1.67;;;;;;;17.82;100.00;100476.16;5048177;28;20055;-68
2022/09/15 10:42:33;;;;;;;11.68;1.92;;;;;;;17.75;100.00;100463.16;5047658;28;20488;-71
2022/09/15 10:45:12;;;;;;;12.32;1.85;;;;;;;17.67;100.00;100467.44;5050239;28;20067;-69
2022/09/15 10:47:51;;;;;;;8.68;2.17;;;;;;;17.64;100.00;100465.53;5049339;28;20052;-70
2022/09/15 10:50:44;;;;;;;11.65;2.13;;;;;;;17.62;100.00;100475.63;5047057;28;20056;-70
2022/09/15 10:53:42;;;;;;;10.63;2.00;;;;;;;17.47;100.00;100466.91;5035038;28;20048;-70
2022/09/15 10:56:23;;;;;;;7.47;1.83;;;;;;;17.27;100.00;100465.56;5045287;28;20048;-71
2022/09/15 10:58:59;;;;;;;8.02;1.98;;;;;;;17.19;100.00;100465.03;5044890;28;20048;-71
2022/09/15 11:01:29;;;;;;;10.07;2.30;;;;;;;17.23;100.00;100471.28;5046403;28;20056;-68
2022/09/15 11:04:01;;;;;;;9.05;1.58;;;;;;;17.19;100.00;100473.41;5048880;28;20059;-71
2022/09/15 11:06:37;;;;;;;7.97;2.38;;;;;;;17.23;100.00;100476.88;5049726;28;20071;-70
2022/09/15 11:09:03;;;;;;;11.63;2.15;;;;;;;17.29;100.00;100474.28;5049706;28;20155;-69
2022/09/15 11:11:40;;;;;;;7.53;1.60;;;;;;;17.16;100.00;100470.72;5049695;28;20150;-70
2022/09/15 11:14:19;;;;;;;7.93;1.92;;;;;;;17.11;100.00;100474.09;5043881;28;20083;-70
2022/09/15 11:16:51;;;;;;;12.88;2.33;;;;;;;17.15;100.00;100477.53;5048331;28;20070;-68
2022/09/15 11:19:21;;;;;;;7.65;1.77;;;;;;;17.14;100.00;100484.34;5047780;28;20060;-69
2022/09/15 11:22:00;;;;;;;6.55;1.48;;;;;;;17.11;100.00;100483.22;5045952;28;20056;-70